| time (UTC) | temp C | wind direction | speed KPH | gust KPH | rain 1hr cm | rain 24hr cm | rain mn cm | humidity % | barometer mb |
| 20260906111001 | 25 | 37 | 1.6 | 3.2 | 0.00 | 0.00 | 0.00 | 8 | 1007.5 |
| 20260906110831 | 25 | 30 | 1.6 | 1.6 | 0.00 | 0.00 | 0.00 | 89 | 1008.5 |
| 20260906110001 | 25 | 52 | 0.0 | 1.6 | 0.00 | 0.00 | 0.00 | 9 | 1007.6 |
| 20260906105825 | 25 | 33 | 3.2 | 4.8 | 0.00 | 0.00 | 0.00 | 90 | 1008.7 |
| 20260906105001 | 25 | 51 | 6.4 | 6.4 | 0.00 | 0.00 | 0.00 | 9 | 1008.0 |
| 20260906104819 | 25 | 47 | 1.6 | 3.2 | 0.00 | 0.00 | 0.00 | 92 | 1008.7 |
| 20260906104001 | 25 | 19 | 3.2 | 4.8 | 0.00 | 0.00 | 0.00 | 9 | 1007.8 |
| 20260906103826 | 25 | 15 | 8.0 | 11.3 | 0.00 | 0.00 | 0.00 | 92 | 1008.8 |
| 20260906103001 | 25 | 15 | 3.2 | 4.8 | 0.00 | 0.00 | 0.00 | 9 | 1007.8 |
| 20260906102819 | 25 | 340 | 3.2 | 4.8 | 0.00 | 0.00 | 0.00 | 91 | 1008.7 |
| 20260906102001 | 25 | 285 | 1.6 | 3.2 | 0.00 | 0.00 | 0.00 | 9 | 1008.0 |
| 20260906101828 | 25 | 268 | 1.6 | 3.2 | 0.00 | 0.00 | 0.00 | 91 | 1008.7 |
| 20260906101001 | 25 | 223 | 1.6 | 3.2 | 0.00 | 0.00 | 0.00 | 9 | 1007.6 |
| 20260906100840 | 25 | 223 | 0.0 | 1.6 | 0.00 | 0.00 | 0.00 | 91 | 1008.2 |
| 20260906100002 | 25 | 235 | 3.2 | 3.2 | 0.00 | 0.00 | 0.00 | 9 | 1007.1 |
| 20260906095828 | 25 | 240 | 3.2 | 4.8 | 0.00 | 0.00 | 0.00 | 91 | 1007.9 |
| 20260906095002 | 25 | 240 | 1.6 | 3.2 | 0.00 | 0.00 | 0.00 | 9 | 1007.2 |
| 20260906094822 | 25 | 240 | 1.6 | 3.2 | 0.00 | 0.00 | 0.00 | 91 | 1008.0 |
| 20260906094002 | 25 | 211 | 0.0 | 1.6 | 0.00 | 0.00 | 0.00 | 9 | 1007.1 |
| 20260906093830 | 25 | 215 | 1.6 | 1.6 | 0.00 | 0.00 | 0.00 | 90 | 1007.9 |
| 20260906093002 | 25 | 215 | 0.0 | 1.6 | 0.00 | 0.00 | 0.00 | 9 | 1007.0 |
| 20260906092825 | 25 | 0.0 | 0.0 | 0.00 | 0.00 | 0.00 | 90 | 1007.5 | |
| 20260906092002 | 25 | 215 | 0.0 | 1.6 | 0.00 | 0.00 | 0.00 | 9 | 1007.0 |
| 20260906091838 | 25 | 221 | 1.6 | 3.2 | 0.00 | 0.00 | 0.00 | 90 | 1007.6 |
| 20260906091002 | 25 | 192 | 0.0 | 1.6 | 0.00 | 0.00 | 0.00 | 9 | 1006.8 |
| 20260906090827 | 26 | 192 | 1.6 | 1.6 | 0.00 | 0.00 | 0.00 | 90 | 1007.7 |
| 20260906090002 | 25 | 216 | 1.6 | 3.2 | 0.00 | 0.00 | 0.00 | 9 | 1007.0 |
| 20260906085821 | 26 | 209 | 3.2 | 4.8 | 0.00 | 0.00 | 0.00 | 90 | 1007.8 |
| 20260906085001 | 25 | 215 | 0.0 | 1.6 | 0.00 | 0.00 | 0.00 | 9 | 1007.0 |
| 20260906084830 | 26 | 238 | 3.2 | 4.8 | 0.00 | 0.00 | 0.00 | 90 | 1007.8 |
| 20260906084001 | 25 | 251 | 3.2 | 6.4 | 0.00 | 0.00 | 0.00 | 9 | 1007.2 |
| 20260906083822 | 26 | 267 | 1.6 | 4.8 | 0.00 | 0.00 | 0.00 | 90 | 1008.2 |
| 20260906083001 | 25 | 313 | 3.2 | 6.4 | 0.00 | 0.00 | 0.00 | 9 | 1007.2 |
| 20260906082816 | 26 | 1 | 3.2 | 6.4 | 0.00 | 0.00 | 0.00 | 90 | 1008.1 |
| 20260906082001 | 25 | 315 | 1.6 | 3.2 | 0.00 | 0.00 | 0.00 | 9 | 1007.4 |
| 20260906081824 | 26 | 315 | 1.6 | 3.2 | 0.00 | 0.00 | 0.00 | 90 | 1008.4 |
| 20260906081001 | 25 | 280 | 1.6 | 3.2 | 0.00 | 0.00 | 0.00 | 8 | 1007.3 |
| 20260906080839 | 26 | 266 | 1.6 | 1.6 | 0.00 | 0.00 | 0.00 | 89 | 1007.9 |
| 20260906080001 | 25 | 262 | 1.6 | 3.2 | 0.00 | 0.00 | 0.00 | 9 | 1007.0 |
| 20260906075828 | 25 | 275 | 1.6 | 3.2 | 0.00 | 0.00 | 0.00 | 89 | 1007.7 |
| 20260906075001 | 25 | 270 | 3.2 | 4.8 | 0.00 | 0.00 | 0.00 | 8 | 1007.1 |
| 20260906074819 | 25 | 273 | 1.6 | 3.2 | 0.00 | 0.00 | 0.00 | 89 | 1007.6 |
| 20260906074001 | 25 | 289 | 3.2 | 4.8 | 0.00 | 0.00 | 0.00 | 8 | 1007.0 |
| 20260906073828 | 25 | 279 | 4.8 | 6.4 | 0.00 | 0.00 | 0.00 | 89 | 1007.6 |
| 20260906073001 | 25 | 264 | 1.6 | 1.6 | 0.00 | 0.00 | 0.00 | 8 | 1007.0 |
| 20260906072821 | 25 | 248 | 1.6 | 3.2 | 0.00 | 0.00 | 0.00 | 89 | 1007.7 |
| 20260906072001 | 25 | 257 | 3.2 | 4.8 | 0.00 | 0.00 | 0.00 | 9 | 1007.1 |
| 20260906071830 | 25 | 261 | 1.6 | 4.8 | 0.00 | 0.00 | 0.00 | 90 | 1007.8 |
| 20260906071001 | 25 | 266 | 4.8 | 6.4 | 0.00 | 0.00 | 0.00 | 9 | 1006.9 |
| 20260906070844 | 25 | 260 | 3.2 | 4.8 | 0.00 | 0.00 | 0.00 | 90 | 1007.7 |
| 20260906070001 | 25 | 248 | 3.2 | 3.2 | 0.00 | 0.00 | 0.00 | 9 | 1006.9 |
| 20260906065828 | 25 | 248 | 3.2 | 3.2 | 0.00 | 0.00 | 0.00 | 89 | 1007.8 |
| 20260906065001 | 25 | 284 | 1.6 | 3.2 | 0.00 | 0.00 | 0.00 | 8 | 1007.2 |
| 20260906064818 | 25 | 284 | 1.6 | 1.6 | 0.00 | 0.00 | 0.00 | 89 | 1008.0 |
| 20260906064001 | 25 | 284 | 1.6 | 3.2 | 0.00 | 0.00 | 0.00 | 8 | 1007.3 |
| 20260906063821 | 25 | 284 | 3.2 | 4.8 | 0.00 | 0.00 | 0.00 | 89 | 1008.0 |
| 20260906063001 | 25 | 230 | 1.6 | 3.2 | 0.00 | 0.00 | 0.00 | 8 | 1007.3 |
| 20260906062828 | 25 | 200 | 1.6 | 1.6 | 0.00 | 0.00 | 0.00 | 88 | 1008.0 |
| 20260906062002 | 25 | 0 | 0.0 | 0.0 | 0.00 | 0.00 | 0.00 | 8 | 1007.6 |
| 20260906061815 | 25 | 200 | 0.0 | 1.6 | 0.00 | 0.00 | 0.00 | 88 | 1008.2 |
| 20260906061002 | 25 | 0 | 0.0 | 0.0 | 0.00 | 0.00 | 0.00 | 8 | 1007.5 |
| 20260906060821 | 25 | 0.0 | 0.0 | 0.00 | 0.00 | 0.00 | 87 | 1008.4 | |
| 20260906060002 | 25 | 200 | 0.0 | 1.6 | 0.00 | 0.00 | 0.00 | 8 | 1007.9 |
| 20260906055824 | 25 | 0.0 | 0.0 | 0.00 | 0.00 | 0.00 | 87 | 1008.4 | |
| 20260906055006 | 25 | 200 | 1.6 | 1.6 | 0.00 | 0.00 | 0.00 | 8 | 1007.7 |
| 20260906054829 | 25 | 200 | 1.6 | 1.6 | 0.00 | 0.00 | 0.00 | 87 | 1008.5 |
| 20260906054001 | 25 | 200 | 0.0 | 1.6 | 0.00 | 0.00 | 0.00 | 8 | 1007.7 |
| 20260906053821 | 25 | 200 | 0.0 | 1.6 | 0.00 | 0.00 | 0.00 | 86 | 1008.5 |
| 20260906053001 | 25 | 201 | 0.0 | 1.6 | 0.00 | 0.00 | 0.00 | 8 | 1007.8 |
| 20260906052828 | 26 | 0.0 | 0.0 | 0.00 | 0.00 | 0.00 | 86 | 1008.4 | |
| 20260906052001 | 25 | 201 | 0.0 | 1.6 | 0.00 | 0.00 | 0.00 | 8 | 1008.0 |
| 20260906051820 | 26 | 0.0 | 0.0 | 0.00 | 0.00 | 0.00 | 86 | 1008.8 | |
| 20260906051001 | 25 | 0 | 0.0 | 0.0 | 0.00 | 0.00 | 0.00 | 8 | 1007.8 |
| 20260906050827 | 26 | 0.0 | 0.0 | 0.00 | 0.00 | 0.00 | 85 | 1008.6 | |
| 20260906050001 | 25 | 0 | 0.0 | 0.0 | 0.00 | 0.00 | 0.00 | 8 | 1008.0 |
| 20260906045819 | 26 | 0.0 | 0.0 | 0.00 | 0.00 | 0.00 | 85 | 1008.6 | |
| 20260906045001 | 26 | 0 | 0.0 | 0.0 | 0.00 | 0.00 | 0.00 | 8 | 1007.8 |
| 20260906044828 | 26 | 201 | 0.0 | 1.6 | 0.00 | 0.00 | 0.00 | 85 | 1008.3 |
| 20260906044001 | 26 | 0 | 0.0 | 0.0 | 0.00 | 0.00 | 0.00 | 8 | 1007.7 |
| 20260906043820 | 26 | 0.0 | 0.0 | 0.00 | 0.00 | 0.00 | 84 | 1008.6 | |
| 20260906043001 | 26 | 0 | 0.0 | 0.0 | 0.00 | 0.00 | 0.00 | 8 | 1007.7 |
| 20260906042829 | 26 | 201 | 0.0 | 1.6 | 0.00 | 0.00 | 0.00 | 84 | 1008.6 |
| 20260906042001 | 26 | 0 | 0.0 | 0.0 | 0.00 | 0.00 | 0.00 | 8 | 1007.6 |
| 20260906041819 | 26 | 201 | 1.6 | 1.6 | 0.00 | 0.00 | 0.00 | 83 | 1008.7 |
| 20260906041001 | 26 | 201 | 0.0 | 1.6 | 0.00 | 0.00 | 0.00 | 8 | 1007.9 |
| 20260906040826 | 26 | 0.0 | 0.0 | 0.00 | 0.00 | 0.00 | 83 | 1008.5 | |
| 20260906040001 | 26 | 200 | 0.0 | 3.2 | 0.00 | 0.00 | 0.00 | 8 | 1007.6 |
| 20260906035821 | 27 | 200 | 1.6 | 3.2 | 0.00 | 0.00 | 0.00 | 82 | 1008.4 |
| 20260906035002 | 26 | 200 | 0.0 | 1.6 | 0.00 | 0.00 | 0.00 | 8 | 1007.7 |
| 20260906034827 | 27 | 200 | 1.6 | 4.8 | 0.00 | 0.00 | 0.00 | 82 | 1008.5 |
| 20260906034002 | 26 | 217 | 0.0 | 1.6 | 0.00 | 0.00 | 0.00 | 8 | 1007.6 |
| 20260906033833 | 27 | 237 | 4.8 | 6.4 | 0.00 | 0.00 | 0.00 | 82 | 1008.6 |
| 20260906033002 | 27 | 250 | 3.2 | 4.8 | 0.00 | 0.00 | 0.00 | 8 | 1007.5 |
| 20260906032825 | 27 | 239 | 3.2 | 6.4 | 0.00 | 0.00 | 0.00 | 82 | 1008.6 |
| 20260906032002 | 27 | 245 | 4.8 | 6.4 | 0.00 | 0.00 | 0.00 | 8 | 1007.6 |
| 20260906031830 | 27 | 247 | 4.8 | 6.4 | 0.00 | 0.00 | 0.00 | 81 | 1008.4 |
| 20260906031002 | 27 | 235 | 3.2 | 3.2 | 0.00 | 0.00 | 0.00 | 8 | 1007.5 |
| 20260906030819 | 27 | 226 | 1.6 | 3.2 | 0.00 | 0.00 | 0.00 | 81 | 1008.6 |
| 20260906030002 | 27 | 210 | 1.6 | 4.8 | 0.00 | 0.00 | 0.00 | 8 | 1007.6 |
| 20260906025825 | 27 | 211 | 3.2 | 4.8 | 0.00 | 0.00 | 0.00 | 80 | 1008.6 |
| 20260906025002 | 27 | 238 | 0.0 | 1.6 | 0.00 | 0.00 | 0.00 | 8 | 1007.6 |
| 20260906024817 | 27 | 237 | 1.6 | 3.2 | 0.00 | 0.00 | 0.00 | 80 | 1008.6 |
| 20260906024001 | 27 | 221 | 3.2 | 6.4 | 0.00 | 0.00 | 0.00 | 8 | 1007.4 |
| 20260906023825 | 27 | 248 | 4.8 | 6.4 | 0.00 | 0.00 | 0.00 | 80 | 1008.3 |
| 20260906023001 | 27 | 220 | 0.0 | 1.6 | 0.00 | 0.00 | 0.00 | 7 | 1007.5 |
| 20260906022829 | 27 | 230 | 1.6 | 3.2 | 0.00 | 0.00 | 0.00 | 80 | 1008.3 |
| 20260906022001 | 27 | 247 | 3.2 | 4.8 | 0.00 | 0.00 | 0.00 | 7 | 1007.3 |
| 20260906021820 | 27 | 230 | 1.6 | 3.2 | 0.00 | 0.00 | 0.00 | 79 | 1008.4 |
| 20260906021001 | 27 | 236 | 1.6 | 3.2 | 0.00 | 0.00 | 0.00 | 7 | 1007.4 |
| 20260906020826 | 27 | 240 | 1.6 | 3.2 | 0.00 | 0.00 | 0.00 | 79 | 1008.5 |
| 20260906020001 | 27 | 269 | 3.2 | 4.8 | 0.00 | 0.00 | 0.00 | 7 | 1007.5 |
| 20260906015817 | 27 | 238 | 4.8 | 11.3 | 0.00 | 0.00 | 0.00 | 79 | 1008.2 |
| 20260906015001 | 27 | 250 | 4.8 | 4.8 | 0.00 | 0.00 | 0.00 | 7 | 1006.9 |
| 20260906014823 | 28 | 229 | 3.2 | 4.8 | 0.00 | 0.00 | 0.00 | 78 | 1008.2 |
| 20260906014001 | 27 | 230 | 3.2 | 6.4 | 0.00 | 0.00 | 0.00 | 7 | 1006.8 |
| 20260906013910 | 28 | 218 | 4.8 | 9.7 | 0.00 | 0.00 | 0.00 | 79 | 1007.9 |
| 20260906013001 | 28 | 241 | 1.6 | 1.6 | 0.00 | 0.00 | 0.00 | 7 | 1006.7 |
| 20260906012823 | 28 | 241 | 3.2 | 3.2 | 0.00 | 0.00 | 0.00 | 78 | 1007.6 |
| 20260906012001 | 28 | 219 | 0.0 | 3.2 | 0.00 | 0.00 | 0.00 | 7 | 1006.3 |
| 20260906011828 | 28 | 218 | 1.6 | 4.8 | 0.00 | 0.00 | 0.00 | 78 | 1007.4 |
| 20260906011001 | 28 | 176 | 1.6 | 3.2 | 0.00 | 0.00 | 0.00 | 7 | 1006.3 |
| 20260906010839 | 28 | 203 | 4.8 | 6.4 | 0.00 | 0.00 | 0.00 | 78 | 1007.3 |
| 20260906010001 | 28 | 234 | 4.8 | 6.4 | 0.00 | 0.00 | 0.00 | 7 | 1006.2 |
| 20260906005826 | 28 | 238 | 1.6 | 3.2 | 0.00 | 0.00 | 0.00 | 78 | 1006.9 |
| 20260906005001 | 28 | 228 | 4.8 | 6.4 | 0.00 | 0.00 | 0.00 | 7 | 1006.0 |
| 20260906004816 | 28 | 247 | 6.4 | 11.3 | 0.00 | 0.00 | 0.00 | 77 | 1006.9 |
| 20260906004002 | 28 | 245 | 4.8 | 6.4 | 0.00 | 0.00 | 0.00 | 7 | 1006.1 |
| 20260906003822 | 28 | 239 | 4.8 | 9.7 | 0.00 | 0.00 | 0.00 | 77 | 1007.1 |
| 20260906003002 | 28 | 213 | 1.6 | 4.8 | 0.00 | 0.00 | 0.00 | 7 | 1006.0 |
| 20260906002828 | 29 | 212 | 3.2 | 4.8 | 0.00 | 0.00 | 0.00 | 76 | 1007.2 |
| 20260906002002 | 29 | 226 | 1.6 | 4.8 | 0.00 | 0.00 | 0.00 | 7 | 1006.0 |
| 20260906001821 | 29 | 195 | 4.8 | 9.7 | 0.00 | 0.00 | 0.00 | 75 | 1007.2 |
| 20260906001002 | 29 | 208 | 4.8 | 4.8 | 0.00 | 0.00 | 0.00 | 7 | 1006.2 |
| 20260906000825 | 30 | 221 | 1.6 | 3.2 | 0.00 | 0.00 | 0.00 | 75 | 1007.0 |
| 20260906000002 | 30 | 185 | 1.6 | 1.6 | 0.00 | 0.00 | 0.00 | 7 | 1006.4 |
| 20260905235857 | 30 | 205 | 4.8 | 6.4 | 0.00 | 0.00 | 0.00 | 74 | 1007.4 |
| 20260905235002 | 30 | 169 | 3.2 | 4.8 | 0.00 | 0.00 | 0.00 | 7 | 1006.4 |
| 20260905234823 | 30 | 186 | 4.8 | 6.4 | 0.00 | 0.00 | 0.00 | 74 | 1007.3 |
| 20260905234002 | 30 | 231 | 3.2 | 4.8 | 0.00 | 0.00 | 0.00 | 7 | 1006.3 |
| 20260905233829 | 30 | 214 | 1.6 | 4.8 | 0.00 | 0.00 | 0.00 | 74 | 1007.4 |
| 20260905233002 | 30 | 226 | 4.8 | 6.4 | 0.00 | 0.00 | 0.00 | 7 | 1006.2 |
| 20260905232819 | 31 | 213 | 4.8 | 9.7 | 0.00 | 0.00 | 0.00 | 72 | 1007.4 |
| 20260905232001 | 31 | 210 | 6.4 | 9.7 | 0.00 | 0.00 | 0.00 | 7 | 1006.1 |
| 20260905231846 | 31 | 189 | 9.7 | 14.5 | 0.00 | 0.00 | 0.00 | 71 | 1007.4 |
| 20260905231001 | 31 | 203 | 11.3 | 12.9 | 0.00 | 0.00 | 0.00 | 7 | 1006.4 |
| 20260905230819 | 32 | 230 | 11.3 | 22.5 | 0.00 | 0.00 | 0.00 | 70 | 1007.2 |
| 20260905230001 | 32 | 185 | 1.6 | 3.2 | 0.00 | 0.00 | 0.00 | 6 | 1006.0 |
| 20260905225825 | 32 | 188 | 4.8 | 9.7 | 0.00 | 0.00 | 0.00 | 69 | 1007.0 |
| 20260905225001 | 32 | 261 | 3.2 | 6.4 | 0.00 | 0.00 | 0.00 | 6 | 1005.8 |
| 20260905224910 | 33 | 225 | 11.3 | 25.7 | 0.00 | 0.00 | 0.00 | 67 | 1006.9 |
| 20260905224001 | 33 | 197 | 14.5 | 22.5 | 0.00 | 0.00 | 0.00 | 6 | 1006.0 |
| 20260905223818 | 33 | 242 | 11.3 | 17.7 | 0.00 | 0.00 | 0.00 | 66 | 1006.9 |
| 20260905223001 | 33 | 171 | 8.0 | 9.7 | 0.00 | 0.00 | 0.00 | 6 | 1005.8 |
| 20260905222819 | 33 | 214 | 12.9 | 30.6 | 0.00 | 0.00 | 0.00 | 65 | 1006.8 |
| 20260905222001 | 33 | 178 | 6.4 | 8.0 | 0.00 | 0.00 | 0.00 | 6 | 1005.6 |
| 20260905221825 | 34 | 216 | 9.7 | 20.9 | 0.00 | 0.00 | 0.00 | 65 | 1006.9 |
| 20260905221001 | 34 | 237 | 11.3 | 14.5 | 0.00 | 0.00 | 0.00 | 6 | 1005.5 |
| 20260905220829 | 34 | 205 | 6.4 | 14.5 | 0.00 | 0.00 | 0.00 | 64 | 1006.9 |
| 20260905220001 | 34 | 168 | 3.2 | 4.8 | 0.00 | 0.00 | 0.00 | 6 | 1005.3 |
| 20260905215817 | 35 | 173 | 6.4 | 9.7 | 0.00 | 0.00 | 0.00 | 64 | 1006.8 |
| 20260905215001 | 34 | 230 | 6.4 | 8.0 | 0.00 | 0.00 | 0.00 | 6 | 1005.4 |
| 20260905214845 | 35 | 201 | 6.4 | 12.9 | 0.00 | 0.00 | 0.00 | 63 | 1006.9 |
| 20260905214001 | 35 | 99 | 4.8 | 6.4 | 0.00 | 0.00 | 0.00 | 6 | 1005.4 |
| 20260905213816 | 35 | 133 | 4.8 | 6.4 | 0.00 | 0.00 | 0.00 | 63 | 1006.9 |
| 20260905213001 | 35 | 165 | 0.0 | 1.6 | 0.00 | 0.00 | 0.00 | 6 | 1005.6 |
| 20260905212839 | 35 | 129 | 6.4 | 9.7 | 0.00 | 0.00 | 0.00 | 63 | 1007.1 |
| 20260905212002 | 35 | 118 | 9.7 | 14.5 | 0.00 | 0.00 | 0.00 | 6 | 1005.6 |
| 20260905211824 | 35 | 168 | 3.2 | 9.7 | 0.00 | 0.00 | 0.00 | 62 | 1007.1 |
| 20260905211002 | 35 | 162 | 6.4 | 8.0 | 0.00 | 0.00 | 0.00 | 6 | 1006.0 |
| 20260905210829 | 35 | 157 | 3.2 | 4.8 | 0.00 | 0.00 | 0.00 | 62 | 1006.9 |
| 20260905210002 | 36 | 84 | 1.6 | 6.4 | 0.00 | 0.00 | 0.00 | 6 | 1005.8 |
| 20260905205815 | 36 | 189 | 6.4 | 11.3 | 0.00 | 0.00 | 0.00 | 61 | 1007.0 |
| 20260905205002 | 36 | 164 | 4.8 | 6.4 | 0.00 | 0.00 | 0.00 | 6 | 1005.8 |
| 20260905204820 | 36 | 244 | 4.8 | 6.4 | 0.00 | 0.00 | 0.00 | 61 | 1007.3 |
| 20260905204002 | 35 | 84 | 3.2 | 4.8 | 0.00 | 0.00 | 0.00 | 6 | 1005.9 |
| 20260905203902 | 36 | 218 | 6.4 | 9.7 | 0.00 | 0.00 | 0.00 | 61 | 1007.1 |
| 20260905203002 | 35 | 121 | 9.7 | 14.5 | 0.00 | 0.00 | 0.00 | 6 | 1006.0 |
| 20260905202825 | 35 | 112 | 6.4 | 9.7 | 0.00 | 0.00 | 0.00 | 62 | 1007.3 |
| 20260905202002 | 35 | 238 | 6.4 | 9.7 | 0.00 | 0.00 | 0.00 | 6 | 1006.2 |
| 20260905201827 | 35 | 232 | 9.7 | 14.5 | 0.00 | 0.00 | 0.00 | 63 | 1007.4 |
| 20260905201001 | 34 | 203 | 8.0 | 9.7 | 0.00 | 0.00 | 0.00 | 6 | 1006.1 |
| 20260905200830 | 34 | 216 | 3.2 | 4.8 | 0.00 | 0.00 | 0.00 | 64 | 1007.4 |
| 20260905200001 | 34 | 99 | 6.4 | 8.0 | 0.00 | 0.00 | 0.00 | 6 | 1006.3 |
| 20260905195821 | 35 | 132 | 11.3 | 24.1 | 0.00 | 0.00 | 0.00 | 62 | 1007.4 |
| 20260905195001 | 35 | 110 | 3.2 | 4.8 | 0.00 | 0.00 | 0.00 | 6 | 1006.4 |
| 20260905194824 | 35 | 109 | 3.2 | 6.4 | 0.00 | 0.00 | 0.00 | 61 | 1007.6 |
| 20260905194001 | 35 | 194 | 6.4 | 8.0 | 0.00 | 0.00 | 0.00 | 6 | 1006.2 |
| 20260905193827 | 35 | 115 | 3.2 | 9.7 | 0.00 | 0.00 | 0.00 | 61 | 1007.4 |
| 20260905193001 | 35 | 145 | 1.6 | 3.2 | 0.00 | 0.00 | 0.00 | 6 | 1006.4 |
| 20260905192830 | 35 | 222 | 6.4 | 6.4 | 0.00 | 0.00 | 0.00 | 62 | 1007.6 |
| 20260905192001 | 35 | 107 | 0.0 | 1.6 | 0.00 | 0.00 | 0.00 | 6 | 1006.4 |
| 20260905191820 | 35 | 175 | 3.2 | 6.4 | 0.00 | 0.00 | 0.00 | 63 | 1007.8 |
| 20260905191001 | 35 | 277 | 6.4 | 8.0 | 0.00 | 0.00 | 0.00 | 6 | 1006.7 |
| 20260905190825 | 35 | 172 | 1.6 | 6.4 | 0.00 | 0.00 | 0.00 | 63 | 1008.1 |
| 20260905190001 | 35 | 228 | 9.7 | 12.9 | 0.00 | 0.00 | 0.00 | 6 | 1006.9 |
| 20260905185829 | 35 | 222 | 9.7 | 17.7 | 0.00 | 0.00 | 0.00 | 65 | 1008.2 |
| 20260905185001 | 35 | 245 | 6.4 | 8.0 | 0.00 | 0.00 | 0.00 | 6 | 1006.9 |
| 20260905184837 | 35 | 243 | 11.3 | 14.5 | 0.00 | 0.00 | 0.00 | 64 | 1008.4 |
| 20260905184001 | 35 | 207 | 4.8 | 8.0 | 0.00 | 0.00 | 0.00 | 6 | 1007.2 |
| 20260905183821 | 35 | 231 | 8.0 | 12.9 | 0.00 | 0.00 | 0.00 | 64 | 1008.6 |
| 20260905183001 | 35 | 201 | 6.4 | 8.0 | 0.00 | 0.00 | 0.00 | 6 | 1007.4 |
| 20260905182824 | 35 | 221 | 8.0 | 12.9 | 0.00 | 0.00 | 0.00 | 64 | 1008.9 |
| 20260905182002 | 35 | 235 | 3.2 | 6.4 | 0.00 | 0.00 | 0.00 | 6 | 1007.4 |
| 20260905181910 | 35 | 205 | 8.0 | 12.9 | 0.00 | 0.00 | 0.00 | 65 | 1008.9 |
| 20260905181002 | 35 | 171 | 6.4 | 8.0 | 0.00 | 0.00 | 0.00 | 6 | 1007.8 |
| 20260905180823 | 35 | 192 | 8.0 | 14.5 | 0.00 | 0.00 | 0.00 | 65 | 1009.0 |
| 20260905180002 | 34 | 227 | 6.4 | 9.7 | 0.00 | 0.00 | 0.00 | 6 | 1007.9 |
| 20260905175829 | 34 | 219 | 8.0 | 12.9 | 0.00 | 0.00 | 0.00 | 67 | 1009.0 |
| 20260905175002 | 33 | 255 | 6.4 | 12.9 | 0.00 | 0.00 | 0.00 | 6 | 1007.8 |
| 20260905174823 | 33 | 217 | 6.4 | 12.9 | 0.00 | 0.00 | 0.00 | 66 | 1009.2 |
| 20260905174002 | 33 | 246 | 8.0 | 8.0 | 0.00 | 0.00 | 0.00 | 6 | 1008.2 |
| 20260905173816 | 34 | 225 | 8.0 | 12.9 | 0.00 | 0.00 | 0.00 | 65 | 1009.3 |
| 20260905173002 | 34 | 266 | 4.8 | 12.9 | 0.00 | 0.00 | 0.00 | 6 | 1008.2 |
| 20260905172824 | 35 | 9 | 4.8 | 12.9 | 0.00 | 0.00 | 0.00 | 62 | 1009.3 |
| 20260905172002 | 35 | 187 | 3.2 | 4.8 | 0.00 | 0.00 | 0.00 | 6 | 1008.3 |
| 20260905171836 | 35 | 200 | 4.8 | 11.3 | 0.00 | 0.00 | 0.00 | 57 | 1009.6 |
| 20260905171001 | 35 | 79 | 3.2 | 3.2 | 0.00 | 0.00 | 0.00 | 5 | 1008.2 |
| 20260905170823 | 35 | 79 | 3.2 | 9.7 | 0.00 | 0.00 | 0.00 | 57 | 1009.4 |
| 20260905170001 | 35 | 96 | 3.2 | 4.8 | 0.00 | 0.00 | 0.00 | 5 | 1008.4 |
| 20260905165830 | 35 | 75 | 4.8 | 6.4 | 0.00 | 0.00 | 0.00 | 56 | 1009.8 |
| 20260905165001 | 34 | 0 | 1.6 | 3.2 | 0.00 | 0.00 | 0.00 | 5 | 1008.7 |
| 20260905164821 | 35 | 331 | 4.8 | 6.4 | 0.00 | 0.00 | 0.00 | 56 | 1010.0 |
| 20260905164001 | 34 | 27 | 9.7 | 12.9 | 0.00 | 0.00 | 0.00 | 5 | 1008.8 |
| 20260905163828 | 35 | 31 | 6.4 | 9.7 | 0.00 | 0.00 | 0.00 | 57 | 1010.1 |
| 20260905163001 | 34 | 48 | 8.0 | 12.9 | 0.00 | 0.00 | 0.00 | 5 | 1009.0 |
| 20260905162826 | 35 | 12 | 9.7 | 12.9 | 0.00 | 0.00 | 0.00 | 57 | 1009.9 |
| 20260905162001 | 34 | 43 | 8.0 | 12.9 | 0.00 | 0.00 | 0.00 | 5 | 1009.2 |
| 20260905161843 | 34 | 7 | 3.2 | 3.2 | 0.00 | 0.00 | 0.00 | 60 | 1010.0 |
| 20260905161001 | 34 | 39 | 8.0 | 12.9 | 0.00 | 0.00 | 0.00 | 5 | 1009.1 |
| 20260905160827 | 34 | 54 | 4.8 | 9.7 | 0.00 | 0.00 | 0.00 | 60 | 1010.1 |
| 20260905160001 | 33 | 37 | 6.4 | 6.4 | 0.00 | 0.00 | 0.00 | 6 | 1008.8 |
| 20260905155817 | 34 | 20 | 6.4 | 11.3 | 0.00 | 0.00 | 0.00 | 62 | 1010.3 |
| 20260905155001 | 33 | 283 | 4.8 | 6.4 | 0.00 | 0.00 | 0.00 | 6 | 1009.1 |
| 20260905154835 | 33 | 246 | 4.8 | 11.3 | 0.00 | 0.00 | 0.00 | 65 | 1010.1 |
| 20260905154002 | 33 | 275 | 3.2 | 4.8 | 0.00 | 0.00 | 0.00 | 6 | 1008.9 |
| 20260905153829 | 33 | 352 | 4.8 | 6.4 | 0.00 | 0.00 | 0.00 | 65 | 1010.1 |
| 20260905153001 | 32 | 311 | 11.3 | 16.1 | 0.00 | 0.00 | 0.00 | 6 | 1009.0 |
| 20260905152842 | 32 | 334 | 6.4 | 11.3 | 0.00 | 0.00 | 0.00 | 67 | 1010.0 |
| 20260905152002 | 32 | 33 | 8.0 | 16.1 | 0.00 | 0.00 | 0.00 | 6 | 1008.9 |
| 20260905151815 | 32 | 315 | 8.0 | 11.3 | 0.00 | 0.00 | 0.00 | 68 | 1010.2 |
| 20260905151002 | 32 | 274 | 9.7 | 12.9 | 0.00 | 0.00 | 0.00 | 6 | 1009.1 |
| 20260905150823 | 32 | 314 | 9.7 | 12.9 | 0.00 | 0.00 | 0.00 | 69 | 1010.1 |
| 20260905150002 | 32 | 337 | 6.4 | 9.7 | 0.00 | 0.00 | 0.00 | 6 | 1009.1 |
| 20260905145836 | 32 | 12 | 1.6 | 6.4 | 0.00 | 0.00 | 0.00 | 69 | 1010.0 |
| 20260905145002 | 31 | 312 | 6.4 | 8.0 | 0.00 | 0.00 | 0.00 | 7 | 1009.0 |
| 20260905144824 | 32 | 6 | 4.8 | 9.7 | 0.00 | 0.00 | 0.00 | 70 | 1010.4 |
| 20260905144002 | 31 | 287 | 1.6 | 1.6 | 0.00 | 0.00 | 0.00 | 7 | 1009.1 |
| 20260905143817 | 31 | 305 | 4.8 | 11.3 | 0.00 | 0.00 | 0.00 | 71 | 1010.2 |
| 20260905143001 | 31 | 351 | 6.4 | 8.0 | 0.00 | 0.00 | 0.00 | 7 | 1008.9 |
| 20260905142825 | 31 | 295 | 6.4 | 14.5 | 0.00 | 0.00 | 0.00 | 73 | 1010.3 |
| 20260905142001 | 30 | 344 | 3.2 | 4.8 | 0.00 | 0.00 | 0.00 | 7 | 1009.3 |
| 20260905141819 | 30 | 356 | 4.8 | 4.8 | 0.00 | 0.00 | 0.00 | 73 | 1010.0 |
| 20260905141001 | 30 | 357 | 6.4 | 9.7 | 0.00 | 0.00 | 0.00 | 7 | 1009.1 |
| 20260905140825 | 30 | 15 | 8.0 | 14.5 | 0.00 | 0.00 | 0.00 | 74 | 1010.1 |
| 20260905140001 | 30 | 2 | 3.2 | 8.0 | 0.00 | 0.00 | 0.00 | 7 | 1009.3 |
| 20260905135819 | 30 | 283 | 3.2 | 4.8 | 0.00 | 0.00 | 0.00 | 77 | 1010.3 |
| 20260905135001 | 29 | 337 | 3.2 | 3.2 | 0.00 | 0.00 | 0.00 | 7 | 1009.5 |
| 20260905134827 | 29 | 303 | 4.8 | 11.3 | 0.00 | 0.00 | 0.00 | 79 | 1010.4 |
| 20260905134001 | 28 | 0 | 4.8 | 6.4 | 0.00 | 0.00 | 0.00 | 7 | 1009.6 |
| 20260905133840 | 28 | 308 | 4.8 | 6.4 | 0.00 | 0.00 | 0.00 | 80 | 1010.3 |
| 20260905133001 | 28 | 328 | 0.0 | 1.6 | 0.00 | 0.00 | 0.00 | 8 | 1009.5 |
| 20260905132829 | 28 | 328 | 1.6 | 3.2 | 0.00 | 0.00 | 0.00 | 82 | 1010.3 |
| 20260905132002 | 27 | 301 | 3.2 | 6.4 | 0.00 | 0.00 | 0.00 | 8 | 1009.2 |
| 20260905131903 | 27 | 312 | 4.8 | 6.4 | 0.00 | 0.00 | 0.00 | 83 | 1010.5 |
| 20260905131001 | 27 | 296 | 3.2 | 6.4 | 0.00 | 0.00 | 0.00 | 8 | 1009.3 |
| 20260905130829 | 27 | 297 | 1.6 | 3.2 | 0.00 | 0.00 | 0.00 | 85 | 1010.4 |
| 20260905130001 | 26 | 295 | 3.2 | 3.2 | 0.00 | 0.00 | 0.00 | 8 | 1009.8 |
| 20260905125822 | 26 | 295 | 1.6 | 3.2 | 0.00 | 0.00 | 0.00 | 87 | 1010.3 |
| 20260905125001 | 26 | 295 | 1.6 | 3.2 | 0.00 | 0.00 | 0.00 | 8 | 1009.5 |
| 20260905124815 | 26 | 296 | 3.2 | 3.2 | 0.00 | 0.00 | 0.00 | 88 | 1010.7 |
| 20260905124001 | 25 | 280 | 3.2 | 4.8 | 0.00 | 0.00 | 0.00 | 8 | 1009.4 |
| 20260905123823 | 25 | 281 | 1.6 | 3.2 | 0.00 | 0.00 | 0.00 | 89 | 1010.3 |
| 20260905123001 | 25 | 276 | 4.8 | 6.4 | 0.00 | 0.00 | 0.00 | 9 | 1009.6 |
| 20260905122818 | 25 | 289 | 3.2 | 4.8 | 0.00 | 0.00 | 0.00 | 91 | 1010.4 |
| 20260905122002 | 24 | 272 | 1.6 | 3.2 | 0.00 | 0.00 | 0.00 | 9 | 1009.9 |
| 20260905121845 | 24 | 267 | 1.6 | 3.2 | 0.00 | 0.00 | 0.00 | 91 | 1010.5 |
| 20260905121002 | 23 | 0 | 0.0 | 0.0 | 0.00 | 0.00 | 0.00 | 9 | 1009.5 |
| 20260905120856 | 24 | 0.0 | 0.0 | 0.00 | 0.00 | 0.00 | 91 | 1010.0 | |
| 20260905120002 | 23 | 0 | 0.0 | 0.0 | 0.00 | 0.00 | 0.00 | 9 | 1009.2 |
| 20260905115824 | 23 | 0.0 | 0.0 | 0.00 | 0.00 | 0.00 | 91 | 1010.0 | |
| 20260905115002 | 23 | 0 | 0.0 | 0.0 | 0.00 | 0.00 | 0.00 | 9 | 1009.3 |
| 20260905114817 | 24 | 252 | 0.0 | 1.6 | 0.00 | 0.00 | 0.00 | 90 | 1010.1 |
| 20260905114002 | 23 | 252 | 1.6 | 3.2 | 0.00 | 0.00 | 0.00 | 9 | 1009.3 |
| 20260905113825 | 24 | 252 | 1.6 | 3.2 | 0.00 | 0.00 | 0.00 | 91 | 1010.1 |
| 20260905113001 | 23 | 252 | 0.0 | 1.6 | 0.00 | 0.00 | 0.00 | 9 | 1009.3 |
| 20260905112819 | 24 | 252 | 0.0 | 1.6 | 0.00 | 0.00 | 0.00 | 91 | 1010.0 |
| 20260905112001 | 23 | 252 | 0.0 | 1.6 | 0.00 | 0.00 | 0.00 | 9 | 1009.1 |
| 20260905111825 | 23 | 252 | 1.6 | 1.6 | 0.00 | 0.00 | 0.00 | 91 | 1010.0 |